sensor_id;sensor_type;location;lat;lon;timestamp;temperature;humidity
27858;DHT22;16852;51.446;6.528;2024-03-08T00:01:26;6.20;99.90
27858;DHT22;16852;51.446;6.528;2024-03-08T00:03:26;6.20;99.90
27858;DHT22;16852;51.446;6.528;2024-03-08T00:05:29;6.10;99.90
27858;DHT22;16852;51.446;6.528;2024-03-08T00:07:30;6.00;99.90
27858;DHT22;16852;51.446;6.528;2024-03-08T00:09:30;6.10;99.90
27858;DHT22;16852;51.446;6.528;2024-03-08T00:11:31;6.10;99.90
27858;DHT22;16852;51.446;6.528;2024-03-08T00:13:31;6.10;99.90
27858;DHT22;16852;51.446;6.528;2024-03-08T00:15:32;6.10;99.90
27858;DHT22;16852;51.446;6.528;2024-03-08T00:17:32;6.20;99.90
27858;DHT22;16852;51.446;6.528;2024-03-08T00:19:33;6.20;99.90
27858;DHT22;16852;51.446;6.528;2024-03-08T00:21:34;6.20;99.90
27858;DHT22;16852;51.446;6.528;2024-03-08T00:23:35;6.10;99.90
27858;DHT22;16852;51.446;6.528;2024-03-08T00:25:35;6.10;99.90
27858;DHT22;16852;51.446;6.528;2024-03-08T00:27:36;6.10;99.90
27858;DHT22;16852;51.446;6.528;2024-03-08T00:29:37;6.10;99.90
27858;DHT22;16852;51.446;6.528;2024-03-08T00:31:39;6.10;99.90
27858;DHT22;16852;51.446;6.528;2024-03-08T00:33:39;6.00;99.90
27858;DHT22;16852;51.446;6.528;2024-03-08T00:35:40;5.90;99.90
27858;DHT22;16852;51.446;6.528;2024-03-08T00:37:41;5.80;99.90
27858;DHT22;16852;51.446;6.528;2024-03-08T00:39:48;5.60;99.90
27858;DHT22;16852;51.446;6.528;2024-03-08T00:41:49;5.50;99.90
27858;DHT22;16852;51.446;6.528;2024-03-08T00:43:50;5.50;99.90
27858;DHT22;16852;51.446;6.528;2024-03-08T00:45:50;5.40;99.90
27858;DHT22;16852;51.446;6.528;2024-03-08T00:47:51;5.40;99.90
27858;DHT22;16852;51.446;6.528;2024-03-08T00:49:52;5.40;99.90
27858;DHT22;16852;51.446;6.528;2024-03-08T00:51:53;5.30;99.90
27858;DHT22;16852;51.446;6.528;2024-03-08T00:53:54;5.20;99.90
27858;DHT22;16852;51.446;6.528;2024-03-08T00:55:54;5.20;99.90
27858;DHT22;16852;51.446;6.528;2024-03-08T00:57:55;5.10;99.90
27858;DHT22;16852;51.446;6.528;2024-03-08T00:59:56;5.00;99.90
27858;DHT22;16852;51.446;6.528;2024-03-08T01:01:56;5.00;99.90
27858;DHT22;16852;51.446;6.528;2024-03-08T01:03:57;4.90;99.90
27858;DHT22;16852;51.446;6.528;2024-03-08T01:05:58;4.80;99.90
27858;DHT22;16852;51.446;6.528;2024-03-08T01:08:01;4.80;99.90
27858;DHT22;16852;51.446;6.528;2024-03-08T01:10:04;4.80;99.90
27858;DHT22;16852;51.446;6.528;2024-03-08T01:12:05;4.70;99.90
27858;DHT22;16852;51.446;6.528;2024-03-08T01:14:07;4.70;99.90
27858;DHT22;16852;51.446;6.528;2024-03-08T01:16:08;4.80;99.90
27858;DHT22;16852;51.446;6.528;2024-03-08T01:18:08;4.80;99.90
27858;DHT22;16852;51.446;6.528;2024-03-08T01:20:10;4.80;99.90
27858;DHT22;16852;51.446;6.528;2024-03-08T01:22:12;4.70;99.90
27858;DHT22;16852;51.446;6.528;2024-03-08T01:24:13;4.70;99.90
27858;DHT22;16852;51.446;6.528;2024-03-08T01:26:14;4.70;99.90
27858;DHT22;16852;51.446;6.528;2024-03-08T01:28:15;4.70;99.90
27858;DHT22;16852;51.446;6.528;2024-03-08T01:30:16;4.70;99.90
27858;DHT22;16852;51.446;6.528;2024-03-08T01:32:17;4.70;99.90
27858;DHT22;16852;51.446;6.528;2024-03-08T01:34:19;4.60;99.90
27858;DHT22;16852;51.446;6.528;2024-03-08T01:36:20;4.60;99.90
27858;DHT22;16852;51.446;6.528;2024-03-08T01:38:21;4.60;99.90
27858;DHT22;16852;51.446;6.528;2024-03-08T01:40:21;4.50;99.90
27858;DHT22;16852;51.446;6.528;2024-03-08T01:42:23;4.60;99.90
27858;DHT22;16852;51.446;6.528;2024-03-08T01:44:23;4.50;99.90
27858;DHT22;16852;51.446;6.528;2024-03-08T01:46:24;4.50;99.90
27858;DHT22;16852;51.446;6.528;2024-03-08T01:48:25;4.50;99.90
27858;DHT22;16852;51.446;6.528;2024-03-08T01:50:26;4.40;99.90
27858;DHT22;16852;51.446;6.528;2024-03-08T01:52:28;4.40;99.90
27858;DHT22;16852;51.446;6.528;2024-03-08T01:54:31;4.30;99.90
27858;DHT22;16852;51.446;6.528;2024-03-08T01:56:32;4.30;99.90
27858;DHT22;16852;51.446;6.528;2024-03-08T01:58:33;4.20;99.90
27858;DHT22;16852;51.446;6.528;2024-03-08T02:00:35;4.30;99.90
27858;DHT22;16852;51.446;6.528;2024-03-08T02:02:37;4.20;99.90
27858;DHT22;16852;51.446;6.528;2024-03-08T02:04:38;4.20;99.90
27858;DHT22;16852;51.446;6.528;2024-03-08T02:06:39;4.10;99.90
27858;DHT22;16852;51.446;6.528;2024-03-08T02:08:42;4.10;99.90
27858;DHT22;16852;51.446;6.528;2024-03-08T02:10:44;4.10;99.90
27858;DHT22;16852;51.446;6.528;2024-03-08T02:12:46;4.10;99.90
27858;DHT22;16852;51.446;6.528;2024-03-08T02:14:47;4.20;99.90
27858;DHT22;16852;51.446;6.528;2024-03-08T02:16:48;4.20;99.90
27858;DHT22;16852;51.446;6.528;2024-03-08T02:18:48;4.20;99.90
27858;DHT22;16852;51.446;6.528;2024-03-08T02:20:49;4.20;99.90
27858;DHT22;16852;51.446;6.528;2024-03-08T02:22:50;4.20;99.90
27858;DHT22;16852;51.446;6.528;2024-03-08T02:24:51;4.20;99.90
27858;DHT22;16852;51.446;6.528;2024-03-08T02:26:51;4.20;99.90
27858;DHT22;16852;51.446;6.528;2024-03-08T02:28:53;4.10;99.90
27858;DHT22;16852;51.446;6.528;2024-03-08T02:30:54;4.10;99.90
27858;DHT22;16852;51.446;6.528;2024-03-08T02:32:56;4.10;99.90
27858;DHT22;16852;51.446;6.528;2024-03-08T02:34:56;4.10;99.90
27858;DHT22;16852;51.446;6.528;2024-03-08T02:37:00;4.10;99.90
27858;DHT22;16852;51.446;6.528;2024-03-08T02:39:03;4.10;99.90
27858;DHT22;16852;51.446;6.528;2024-03-08T02:41:05;4.10;99.90
27858;DHT22;16852;51.446;6.528;2024-03-08T02:43:06;4.10;99.90
27858;DHT22;16852;51.446;6.528;2024-03-08T02:45:07;4.00;99.90
27858;DHT22;16852;51.446;6.528;2024-03-08T02:47:10;4.10;99.90
27858;DHT22;16852;51.446;6.528;2024-03-08T02:49:10;4.00;99.90
27858;DHT22;16852;51.446;6.528;2024-03-08T02:51:12;3.90;99.90
27858;DHT22;16852;51.446;6.528;2024-03-08T02:53:14;4.00;99.90
27858;DHT22;16852;51.446;6.528;2024-03-08T02:55:14;3.90;99.90
27858;DHT22;16852;51.446;6.528;2024-03-08T02:57:18;3.90;99.90
27858;DHT22;16852;51.446;6.528;2024-03-08T02:59:18;3.90;99.90
27858;DHT22;16852;51.446;6.528;2024-03-08T03:01:19;3.90;99.90
27858;DHT22;16852;51.446;6.528;2024-03-08T03:03:20;3.90;99.90
27858;DHT22;16852;51.446;6.528;2024-03-08T03:05:22;3.90;99.90
27858;DHT22;16852;51.446;6.528;2024-03-08T03:07:23;3.90;99.90
27858;DHT22;16852;51.446;6.528;2024-03-08T03:09:24;3.90;99.90
27858;DHT22;16852;51.446;6.528;2024-03-08T03:11:27;3.90;99.90
27858;DHT22;16852;51.446;6.528;2024-03-08T03:13:28;3.90;99.90
27858;DHT22;16852;51.446;6.528;2024-03-08T03:15:30;3.90;99.90
27858;DHT22;16852;51.446;6.528;2024-03-08T03:17:30;3.80;99.90
27858;DHT22;16852;51.446;6.528;2024-03-08T03:19:31;3.90;99.90
27858;DHT22;16852;51.446;6.528;2024-03-08T03:21:31;3.90;99.90
27858;DHT22;16852;51.446;6.528;2024-03-08T03:23:32;3.90;99.90
27858;DHT22;16852;51.446;6.528;2024-03-08T03:25:34;3.80;99.90
27858;DHT22;16852;51.446;6.528;2024-03-08T03:27:35;3.80;99.90
27858;DHT22;16852;51.446;6.528;2024-03-08T03:29:38;3.80;99.90
27858;DHT22;16852;51.446;6.528;2024-03-08T03:31:40;3.80;99.90
27858;DHT22;16852;51.446;6.528;2024-03-08T03:33:40;3.70;99.90
27858;DHT22;16852;51.446;6.528;2024-03-08T03:35:41;3.80;99.90
27858;DHT22;16852;51.446;6.528;2024-03-08T03:37:43;3.70;99.90
27858;DHT22;16852;51.446;6.528;2024-03-08T03:39:51;3.70;99.90
27858;DHT22;16852;51.446;6.528;2024-03-08T03:41:53;3.60;99.90
27858;DHT22;16852;51.446;6.528;2024-03-08T03:43:54;3.70;99.90
27858;DHT22;16852;51.446;6.528;2024-03-08T03:45:54;3.60;99.90
27858;DHT22;16852;51.446;6.528;2024-03-08T03:47:56;3.60;99.90
27858;DHT22;16852;51.446;6.528;2024-03-08T03:49:56;3.60;99.90
27858;DHT22;16852;51.446;6.528;2024-03-08T03:52:02;3.60;99.90
27858;DHT22;16852;51.446;6.528;2024-03-08T03:54:05;3.60;99.90
27858;DHT22;16852;51.446;6.528;2024-03-08T03:56:05;3.60;99.90
27858;DHT22;16852;51.446;6.528;2024-03-08T03:58:08;3.60;99.90
27858;DHT22;16852;51.446;6.528;2024-03-08T04:00:10;3.60;99.90
27858;DHT22;16852;51.446;6.528;2024-03-08T04:02:11;3.60;99.90
27858;DHT22;16852;51.446;6.528;2024-03-08T04:04:11;3.60;99.90
27858;DHT22;16852;51.446;6.528;2024-03-08T04:06:13;3.50;99.90
27858;DHT22;16852;51.446;6.528;2024-03-08T04:08:14;3.50;99.90
27858;DHT22;16852;51.446;6.528;2024-03-08T04:10:15;3.50;99.90
27858;DHT22;16852;51.446;6.528;2024-03-08T04:12:15;3.50;99.90
27858;DHT22;16852;51.446;6.528;2024-03-08T04:14:16;3.50;99.90
27858;DHT22;16852;51.446;6.528;2024-03-08T04:16:16;3.50;99.90
27858;DHT22;16852;51.446;6.528;2024-03-08T04:18:19;3.50;99.90
27858;DHT22;16852;51.446;6.528;2024-03-08T04:20:19;3.50;99.90
27858;DHT22;16852;51.446;6.528;2024-03-08T04:22:21;3.50;99.90
27858;DHT22;16852;51.446;6.528;2024-03-08T04:24:22;3.50;99.90
27858;DHT22;16852;51.446;6.528;2024-03-08T04:26:22;3.50;99.90
27858;DHT22;16852;51.446;6.528;2024-03-08T04:28:23;3.50;99.90
27858;DHT22;16852;51.446;6.528;2024-03-08T04:30:24;3.60;99.90
27858;DHT22;16852;51.446;6.528;2024-03-08T04:32:24;3.60;99.90
27858;DHT22;16852;51.446;6.528;2024-03-08T04:34:25;3.60;99.90
27858;DHT22;16852;51.446;6.528;2024-03-08T04:36:26;3.70;99.90
27858;DHT22;16852;51.446;6.528;2024-03-08T04:38:26;3.70;99.90
27858;DHT22;16852;51.446;6.528;2024-03-08T04:40:27;3.60;99.90
27858;DHT22;16852;51.446;6.528;2024-03-08T04:42:28;3.60;99.90
27858;DHT22;16852;51.446;6.528;2024-03-08T04:44:30;3.60;99.90
27858;DHT22;16852;51.446;6.528;2024-03-08T04:46:31;3.60;99.90
27858;DHT22;16852;51.446;6.528;2024-03-08T04:48:32;3.60;99.90
27858;DHT22;16852;51.446;6.528;2024-03-08T04:50:33;3.50;99.90
27858;DHT22;16852;51.446;6.528;2024-03-08T04:52:34;3.50;99.90
27858;DHT22;16852;51.446;6.528;2024-03-08T04:54:36;3.50;99.90
27858;DHT22;16852;51.446;6.528;2024-03-08T04:56:36;3.50;99.90
27858;DHT22;16852;51.446;6.528;2024-03-08T04:58:37;3.50;99.90
27858;DHT22;16852;51.446;6.528;2024-03-08T05:00:37;3.50;99.90
27858;DHT22;16852;51.446;6.528;2024-03-08T05:02:38;3.50;99.90
27858;DHT22;16852;51.446;6.528;2024-03-08T05:04:39;3.50;99.90
27858;DHT22;16852;51.446;6.528;2024-03-08T05:06:40;3.60;99.90
27858;DHT22;16852;51.446;6.528;2024-03-08T05:08:40;3.60;99.90
27858;DHT22;16852;51.446;6.528;2024-03-08T05:10:41;3.50;99.90
27858;DHT22;16852;51.446;6.528;2024-03-08T05:12:42;3.50;99.90
27858;DHT22;16852;51.446;6.528;2024-03-08T05:14:44;3.50;99.90
27858;DHT22;16852;51.446;6.528;2024-03-08T05:16:45;3.50;99.90
27858;DHT22;16852;51.446;6.528;2024-03-08T05:18:49;3.50;99.90
27858;DHT22;16852;51.446;6.528;2024-03-08T05:20:49;3.50;99.90
27858;DHT22;16852;51.446;6.528;2024-03-08T05:22:51;3.40;99.90
27858;DHT22;16852;51.446;6.528;2024-03-08T05:24:52;3.50;99.90
27858;DHT22;16852;51.446;6.528;2024-03-08T05:26:52;3.50;99.90
27858;DHT22;16852;51.446;6.528;2024-03-08T05:28:53;3.40;99.90
27858;DHT22;16852;51.446;6.528;2024-03-08T05:30:53;3.50;99.90
27858;DHT22;16852;51.446;6.528;2024-03-08T05:32:57;3.40;99.90
27858;DHT22;16852;51.446;6.528;2024-03-08T05:34:57;3.30;99.90
27858;DHT22;16852;51.446;6.528;2024-03-08T05:36:58;3.40;99.90
27858;DHT22;16852;51.446;6.528;2024-03-08T05:39:00;3.30;99.90
27858;DHT22;16852;51.446;6.528;2024-03-08T05:41:01;3.20;99.90
27858;DHT22;16852;51.446;6.528;2024-03-08T05:43:01;3.30;99.90
27858;DHT22;16852;51.446;6.528;2024-03-08T05:45:05;3.30;99.90
27858;DHT22;16852;51.446;6.528;2024-03-08T05:47:06;3.30;99.90
27858;DHT22;16852;51.446;6.528;2024-03-08T05:49:07;3.30;99.90
27858;DHT22;16852;51.446;6.528;2024-03-08T05:51:10;3.30;99.90
27858;DHT22;16852;51.446;6.528;2024-03-08T05:53:10;3.20;99.90
27858;DHT22;16852;51.446;6.528;2024-03-08T05:55:11;3.30;99.90
27858;DHT22;16852;51.446;6.528;2024-03-08T05:57:14;3.20;99.90
27858;DHT22;16852;51.446;6.528;2024-03-08T05:59:15;3.30;99.90
27858;DHT22;16852;51.446;6.528;2024-03-08T06:01:16;3.20;99.90
27858;DHT22;16852;51.446;6.528;2024-03-08T06:03:16;3.20;99.90
27858;DHT22;16852;51.446;6.528;2024-03-08T06:05:17;3.20;99.90
27858;DHT22;16852;51.446;6.528;2024-03-08T06:07:18;3.20;99.90
27858;DHT22;16852;51.446;6.528;2024-03-08T06:09:18;3.30;99.90
27858;DHT22;16852;51.446;6.528;2024-03-08T06:11:23;3.20;99.90
27858;DHT22;16852;51.446;6.528;2024-03-08T06:13:24;3.20;99.90
27858;DHT22;16852;51.446;6.528;2024-03-08T06:15:24;3.20;99.90
27858;DHT22;16852;51.446;6.528;2024-03-08T06:17:25;3.20;99.90
27858;DHT22;16852;51.446;6.528;2024-03-08T06:19:25;3.10;99.90
27858;DHT22;16852;51.446;6.528;2024-03-08T06:21:27;3.10;99.90
27858;DHT22;16852;51.446;6.528;2024-03-08T06:23:27;3.10;99.90
27858;DHT22;16852;51.446;6.528;2024-03-08T06:25:29;3.10;99.90
27858;DHT22;16852;51.446;6.528;2024-03-08T06:27:30;3.10;99.90
27858;DHT22;16852;51.446;6.528;2024-03-08T06:29:34;3.10;99.90
27858;DHT22;16852;51.446;6.528;2024-03-08T06:31:34;3.10;99.90
27858;DHT22;16852;51.446;6.528;2024-03-08T06:33:39;3.10;99.90
27858;DHT22;16852;51.446;6.528;2024-03-08T06:35:39;3.10;99.90
27858;DHT22;16852;51.446;6.528;2024-03-08T06:37:40;3.10;99.90
27858;DHT22;16852;51.446;6.528;2024-03-08T06:39:42;3.10;99.90
27858;DHT22;16852;51.446;6.528;2024-03-08T06:41:43;3.10;99.90
27858;DHT22;16852;51.446;6.528;2024-03-08T06:43:47;3.10;99.90
27858;DHT22;16852;51.446;6.528;2024-03-08T06:45:52;3.10;99.90
27858;DHT22;16852;51.446;6.528;2024-03-08T06:47:53;3.20;99.90
27858;DHT22;16852;51.446;6.528;2024-03-08T06:49:55;3.20;99.90
27858;DHT22;16852;51.446;6.528;2024-03-08T06:51:55;3.20;99.90
27858;DHT22;16852;51.446;6.528;2024-03-08T06:53:57;3.20;99.90
27858;DHT22;16852;51.446;6.528;2024-03-08T06:55:58;3.20;99.90
27858;DHT22;16852;51.446;6.528;2024-03-08T06:57:59;3.20;99.90
27858;DHT22;16852;51.446;6.528;2024-03-08T06:59:59;3.30;99.90
27858;DHT22;16852;51.446;6.528;2024-03-08T07:02:00;3.50;99.90
27858;DHT22;16852;51.446;6.528;2024-03-08T07:04:00;3.90;99.90
27858;DHT22;16852;51.446;6.528;2024-03-08T07:06:05;4.20;99.90
27858;DHT22;16852;51.446;6.528;2024-03-08T07:08:07;4.50;99.90
27858;DHT22;16852;51.446;6.528;2024-03-08T07:10:08;4.80;99.90
27858;DHT22;16852;51.446;6.528;2024-03-08T07:12:11;5.10;99.90
27858;DHT22;16852;51.446;6.528;2024-03-08T07:14:13;5.10;99.90
27858;DHT22;16852;51.446;6.528;2024-03-08T07:16:15;5.50;99.90
27858;DHT22;16852;51.446;6.528;2024-03-08T07:18:16;5.70;99.90
27858;DHT22;16852;51.446;6.528;2024-03-08T07:20:17;5.90;99.90
27858;DHT22;16852;51.446;6.528;2024-03-08T07:22:19;6.20;99.90
27858;DHT22;16852;51.446;6.528;2024-03-08T07:24:19;6.50;99.90
27858;DHT22;16852;51.446;6.528;2024-03-08T07:26:39;6.80;99.90
27858;DHT22;16852;51.446;6.528;2024-03-08T07:28:39;6.50;99.90
27858;DHT22;16852;51.446;6.528;2024-03-08T07:30:40;6.70;99.90
27858;DHT22;16852;51.446;6.528;2024-03-08T07:32:43;6.90;99.90
27858;DHT22;16852;51.446;6.528;2024-03-08T07:34:44;7.20;99.90
27858;DHT22;16852;51.446;6.528;2024-03-08T07:36:45;7.40;99.90
27858;DHT22;16852;51.446;6.528;2024-03-08T07:38:45;7.40;99.90
27858;DHT22;16852;51.446;6.528;2024-03-08T07:40:47;7.30;99.90
27858;DHT22;16852;51.446;6.528;2024-03-08T07:42:48;7.70;99.90
27858;DHT22;16852;51.446;6.528;2024-03-08T07:44:49;7.60;99.90
27858;DHT22;16852;51.446;6.528;2024-03-08T07:46:50;7.70;99.90
27858;DHT22;16852;51.446;6.528;2024-03-08T07:48:51;7.90;99.90
27858;DHT22;16852;51.446;6.528;2024-03-08T07:50:52;8.30;99.90
27858;DHT22;16852;51.446;6.528;2024-03-08T07:52:52;8.40;99.90
27858;DHT22;16852;51.446;6.528;2024-03-08T07:54:53;8.40;99.90
27858;DHT22;16852;51.446;6.528;2024-03-08T07:56:55;8.60;99.90
27858;DHT22;16852;51.446;6.528;2024-03-08T07:58:55;8.90;99.90
27858;DHT22;16852;51.446;6.528;2024-03-08T08:00:56;9.00;99.90
27858;DHT22;16852;51.446;6.528;2024-03-08T08:02:57;9.10;99.90
27858;DHT22;16852;51.446;6.528;2024-03-08T08:04:57;8.90;99.90
27858;DHT22;16852;51.446;6.528;2024-03-08T08:06:59;8.80;99.90
27858;DHT22;16852;51.446;6.528;2024-03-08T08:09:00;8.90;99.90
27858;DHT22;16852;51.446;6.528;2024-03-08T08:11:00;8.70;99.90
27858;DHT22;16852;51.446;6.528;2024-03-08T08:13:03;8.90;99.90
27858;DHT22;16852;51.446;6.528;2024-03-08T08:15:07;8.90;99.90
27858;DHT22;16852;51.446;6.528;2024-03-08T08:17:07;8.90;99.90
27858;DHT22;16852;51.446;6.528;2024-03-08T08:19:09;8.90;99.90
27858;DHT22;16852;51.446;6.528;2024-03-08T08:21:09;9.10;99.90
27858;DHT22;16852;51.446;6.528;2024-03-08T08:23:11;9.30;99.90
27858;DHT22;16852;51.446;6.528;2024-03-08T08:25:12;9.20;99.90
27858;DHT22;16852;51.446;6.528;2024-03-08T08:27:13;9.20;99.90
27858;DHT22;16852;51.446;6.528;2024-03-08T08:29:14;9.40;99.90
27858;DHT22;16852;51.446;6.528;2024-03-08T08:31:15;9.50;99.90
27858;DHT22;16852;51.446;6.528;2024-03-08T08:33:16;9.50;99.90
27858;DHT22;16852;51.446;6.528;2024-03-08T08:35:17;9.50;99.90
27858;DHT22;16852;51.446;6.528;2024-03-08T08:37:20;9.40;99.90
27858;DHT22;16852;51.446;6.528;2024-03-08T08:39:20;9.60;99.90
27858;DHT22;16852;51.446;6.528;2024-03-08T08:41:23;9.60;99.90
27858;DHT22;16852;51.446;6.528;2024-03-08T08:43:23;9.60;99.90
27858;DHT22;16852;51.446;6.528;2024-03-08T08:45:26;9.50;99.90
27858;DHT22;16852;51.446;6.528;2024-03-08T08:47:27;9.40;99.90
27858;DHT22;16852;51.446;6.528;2024-03-08T08:49:28;9.50;99.90
27858;DHT22;16852;51.446;6.528;2024-03-08T08:51:29;9.60;99.90
27858;DHT22;16852;51.446;6.528;2024-03-08T08:53:29;9.70;99.90
27858;DHT22;16852;51.446;6.528;2024-03-08T08:55:30;9.60;99.90
27858;DHT22;16852;51.446;6.528;2024-03-08T08:57:31;9.60;99.90
27858;DHT22;16852;51.446;6.528;2024-03-08T08:59:34;9.50;99.90
27858;DHT22;16852;51.446;6.528;2024-03-08T09:01:36;9.60;99.90
27858;DHT22;16852;51.446;6.528;2024-03-08T09:03:36;9.50;99.90
27858;DHT22;16852;51.446;6.528;2024-03-08T09:05:37;9.40;99.90
27858;DHT22;16852;51.446;6.528;2024-03-08T09:07:38;9.30;99.90
27858;DHT22;16852;51.446;6.528;2024-03-08T09:09:38;9.40;99.90
27858;DHT22;16852;51.446;6.528;2024-03-08T09:11:39;9.40;99.90
27858;DHT22;16852;51.446;6.528;2024-03-08T09:13:44;9.50;99.90
27858;DHT22;16852;51.446;6.528;2024-03-08T09:15:44;9.30;99.90
27858;DHT22;16852;51.446;6.528;2024-03-08T09:17:46;9.50;99.90
27858;DHT22;16852;51.446;6.528;2024-03-08T09:19:47;9.60;99.90
27858;DHT22;16852;51.446;6.528;2024-03-08T09:21:50;9.50;99.90
27858;DHT22;16852;51.446;6.528;2024-03-08T09:23:51;9.40;99.90
27858;DHT22;16852;51.446;6.528;2024-03-08T09:25:52;9.50;99.90
27858;DHT22;16852;51.446;6.528;2024-03-08T09:27:52;9.60;99.90
27858;DHT22;16852;51.446;6.528;2024-03-08T09:29:53;9.70;99.90
27858;DHT22;16852;51.446;6.528;2024-03-08T09:31:54;9.90;99.90
27858;DHT22;16852;51.446;6.528;2024-03-08T09:33:54;9.90;99.90
27858;DHT22;16852;51.446;6.528;2024-03-08T09:35:55;10.00;99.90
27858;DHT22;16852;51.446;6.528;2024-03-08T09:37:58;9.80;99.90
27858;DHT22;16852;51.446;6.528;2024-03-08T09:39:58;9.90;99.90
27858;DHT22;16852;51.446;6.528;2024-03-08T09:42:00;10.00;99.90
27858;DHT22;16852;51.446;6.528;2024-03-08T09:44:01;10.10;99.90
27858;DHT22;16852;51.446;6.528;2024-03-08T09:46:03;10.10;99.90
27858;DHT22;16852;51.446;6.528;2024-03-08T09:48:05;10.20;99.90
27858;DHT22;16852;51.446;6.528;2024-03-08T09:50:10;10.20;99.90
27858;DHT22;16852;51.446;6.528;2024-03-08T09:52:13;10.30;99.90
27858;DHT22;16852;51.446;6.528;2024-03-08T09:54:14;10.30;99.90
27858;DHT22;16852;51.446;6.528;2024-03-08T09:56:17;10.50;99.90
27858;DHT22;16852;51.446;6.528;2024-03-08T09:58:18;10.50;99.90
27858;DHT22;16852;51.446;6.528;2024-03-08T10:00:36;10.50;99.90
27858;DHT22;16852;51.446;6.528;2024-03-08T10:02:37;10.30;99.90
27858;DHT22;16852;51.446;6.528;2024-03-08T10:04:39;10.20;99.90
27858;DHT22;16852;51.446;6.528;2024-03-08T10:06:42;10.40;99.90
27858;DHT22;16852;51.446;6.528;2024-03-08T10:08:44;10.00;99.90
27858;DHT22;16852;51.446;6.528;2024-03-08T10:10:45;10.00;99.90
27858;DHT22;16852;51.446;6.528;2024-03-08T10:12:46;10.10;99.90
27858;DHT22;16852;51.446;6.528;2024-03-08T10:14:47;10.00;99.90
27858;DHT22;16852;51.446;6.528;2024-03-08T10:16:47;10.00;99.90
27858;DHT22;16852;51.446;6.528;2024-03-08T10:18:48;10.10;99.90
27858;DHT22;16852;51.446;6.528;2024-03-08T10:21:07;9.90;99.90
27858;DHT22;16852;51.446;6.528;2024-03-08T10:23:10;10.00;99.90
27858;DHT22;16852;51.446;6.528;2024-03-08T10:25:11;10.20;99.90
27858;DHT22;16852;51.446;6.528;2024-03-08T10:27:12;10.20;99.90
27858;DHT22;16852;51.446;6.528;2024-03-08T10:29:13;10.30;99.90
27858;DHT22;16852;51.446;6.528;2024-03-08T10:31:16;10.40;99.90
27858;DHT22;16852;51.446;6.528;2024-03-08T10:33:17;10.30;99.90
27858;DHT22;16852;51.446;6.528;2024-03-08T10:35:18;10.30;99.90
27858;DHT22;16852;51.446;6.528;2024-03-08T10:37:21;10.50;99.90
27858;DHT22;16852;51.446;6.528;2024-03-08T10:39:24;10.50;99.90
27858;DHT22;16852;51.446;6.528;2024-03-08T10:41:27;10.40;99.90
27858;DHT22;16852;51.446;6.528;2024-03-08T10:43:36;10.50;99.90
27858;DHT22;16852;51.446;6.528;2024-03-08T10:45:41;10.40;99.90
27858;DHT22;16852;51.446;6.528;2024-03-08T10:47:46;10.40;99.90
27858;DHT22;16852;51.446;6.528;2024-03-08T10:51:50;10.70;99.90
27858;DHT22;16852;51.446;6.528;2024-03-08T10:53:52;10.60;99.90
27858;DHT22;16852;51.446;6.528;2024-03-08T10:55:56;10.60;99.90
27858;DHT22;16852;51.446;6.528;2024-03-08T10:57:57;10.60;99.90
27858;DHT22;16852;51.446;6.528;2024-03-08T10:59:58;10.70;99.90
27858;DHT22;16852;51.446;6.528;2024-03-08T11:02:00;10.80;99.90
27858;DHT22;16852;51.446;6.528;2024-03-08T11:04:04;10.80;99.90
27858;DHT22;16852;51.446;6.528;2024-03-08T11:06:05;11.00;99.90
27858;DHT22;16852;51.446;6.528;2024-03-08T11:08:26;11.10;99.90
27858;DHT22;16852;51.446;6.528;2024-03-08T11:10:31;11.10;99.90
27858;DHT22;16852;51.446;6.528;2024-03-08T11:12:39;11.10;99.90
27858;DHT22;16852;51.446;6.528;2024-03-08T11:14:46;11.20;99.90
27858;DHT22;16852;51.446;6.528;2024-03-08T11:16:49;11.30;99.90
27858;DHT22;16852;51.446;6.528;2024-03-08T11:18:49;11.40;99.90
27858;DHT22;16852;51.446;6.528;2024-03-08T11:20:50;11.40;99.90
27858;DHT22;16852;51.446;6.528;2024-03-08T11:22:59;11.50;99.90
27858;DHT22;16852;51.446;6.528;2024-03-08T11:25:02;11.50;99.20
27858;DHT22;16852;51.446;6.528;2024-03-08T11:27:04;11.50;99.70
27858;DHT22;16852;51.446;6.528;2024-03-08T11:31:31;11.50;99.30
27858;DHT22;16852;51.446;6.528;2024-03-08T11:33:35;11.60;99.00
27858;DHT22;16852;51.446;6.528;2024-03-08T11:35:36;11.70;99.10
27858;DHT22;16852;51.446;6.528;2024-03-08T11:37:37;11.70;98.60
27858;DHT22;16852;51.446;6.528;2024-03-08T11:39:39;11.70;98.00
27858;DHT22;16852;51.446;6.528;2024-03-08T11:41:40;11.80;98.30
27858;DHT22;16852;51.446;6.528;2024-03-08T11:43:42;11.90;98.40
27858;DHT22;16852;51.446;6.528;2024-03-08T11:45:43;11.90;99.20
27858;DHT22;16852;51.446;6.528;2024-03-08T11:47:44;11.90;97.40
27858;DHT22;16852;51.446;6.528;2024-03-08T11:49:47;11.80;96.80
27858;DHT22;16852;51.446;6.528;2024-03-08T11:51:52;11.90;96.70
27858;DHT22;16852;51.446;6.528;2024-03-08T11:53:53;11.80;97.00
27858;DHT22;16852;51.446;6.528;2024-03-08T11:55:54;11.80;97.10
27858;DHT22;16852;51.446;6.528;2024-03-08T11:58:03;11.70;96.30
27858;DHT22;16852;51.446;6.528;2024-03-08T12:00:05;11.70;96.40
27858;DHT22;16852;51.446;6.528;2024-03-08T12:02:08;11.80;97.20
27858;DHT22;16852;51.446;6.528;2024-03-08T12:04:12;11.90;96.30
27858;DHT22;16852;51.446;6.528;2024-03-08T12:06:13;11.90;96.40
27858;DHT22;16852;51.446;6.528;2024-03-08T12:08:16;11.90;96.90
27858;DHT22;16852;51.446;6.528;2024-03-08T12:10:21;12.00;96.80
27858;DHT22;16852;51.446;6.528;2024-03-08T12:12:24;12.00;95.90
27858;DHT22;16852;51.446;6.528;2024-03-08T12:14:25;11.80;98.70
27858;DHT22;16852;51.446;6.528;2024-03-08T12:16:25;11.80;99.80
27858;DHT22;16852;51.446;6.528;2024-03-08T12:18:26;11.90;99.90
27858;DHT22;16852;51.446;6.528;2024-03-08T12:20:29;11.80;99.80
27858;DHT22;16852;51.446;6.528;2024-03-08T12:22:30;11.80;99.90
27858;DHT22;16852;51.446;6.528;2024-03-08T12:24:31;11.80;99.90
27858;DHT22;16852;51.446;6.528;2024-03-08T12:26:32;11.70;99.90
27858;DHT22;16852;51.446;6.528;2024-03-08T12:28:33;11.60;99.90
27858;DHT22;16852;51.446;6.528;2024-03-08T12:30:43;11.50;99.90
27858;DHT22;16852;51.446;6.528;2024-03-08T12:32:59;11.40;99.90
27858;DHT22;16852;51.446;6.528;2024-03-08T12:34:59;11.20;99.90
27858;DHT22;16852;51.446;6.528;2024-03-08T12:37:00;11.10;99.90
27858;DHT22;16852;51.446;6.528;2024-03-08T12:39:01;11.10;99.90
27858;DHT22;16852;51.446;6.528;2024-03-08T12:41:02;11.20;99.90
27858;DHT22;16852;51.446;6.528;2024-03-08T12:43:02;11.30;99.90
27858;DHT22;16852;51.446;6.528;2024-03-08T12:45:03;11.30;99.90
27858;DHT22;16852;51.446;6.528;2024-03-08T12:47:06;11.40;99.90
27858;DHT22;16852;51.446;6.528;2024-03-08T12:49:08;11.40;99.90
27858;DHT22;16852;51.446;6.528;2024-03-08T12:51:16;11.30;99.90
27858;DHT22;16852;51.446;6.528;2024-03-08T12:53:18;11.30;99.90
27858;DHT22;16852;51.446;6.528;2024-03-08T12:55:19;11.20;99.90
27858;DHT22;16852;51.446;6.528;2024-03-08T12:57:19;11.30;99.90
27858;DHT22;16852;51.446;6.528;2024-03-08T12:59:20;11.40;99.90
27858;DHT22;16852;51.446;6.528;2024-03-08T13:01:22;11.20;99.90
27858;DHT22;16852;51.446;6.528;2024-03-08T13:03:23;11.20;99.90